sensor_id;sensor_type;location;lat;lon;timestamp;P1;durP1;ratioP1;P2;durP2;ratioP2
66739;SDS011;53653;52.188;8.602;2022-08-19T00:00:34;16.17;;;7.78;;
66739;SDS011;53653;52.188;8.602;2022-08-19T00:03:01;15.95;;;8.15;;
66739;SDS011;53653;52.188;8.602;2022-08-19T00:05:26;18.03;;;8.10;;
66739;SDS011;53653;52.188;8.602;2022-08-19T00:07:51;18.83;;;7.87;;
66739;SDS011;53653;52.188;8.602;2022-08-19T00:10:18;15.68;;;8.30;;
66739;SDS011;53653;52.188;8.602;2022-08-19T00:12:44;17.33;;;8.73;;
66739;SDS011;53653;52.188;8.602;2022-08-19T00:15:12;17.00;;;8.45;;
66739;SDS011;53653;52.188;8.602;2022-08-19T00:17:40;17.02;;;8.68;;
66739;SDS011;53653;52.188;8.602;2022-08-19T00:20:08;15.80;;;8.37;;
66739;SDS011;53653;52.188;8.602;2022-08-19T00:22:36;18.17;;;8.73;;
66739;SDS011;53653;52.188;8.602;2022-08-19T00:25:02;20.10;;;9.18;;
66739;SDS011;53653;52.188;8.602;2022-08-19T00:27:28;14.68;;;8.30;;
66739;SDS011;53653;52.188;8.602;2022-08-19T00:29:54;15.20;;;8.90;;
66739;SDS011;53653;52.188;8.602;2022-08-19T00:32:19;16.37;;;8.07;;
66739;SDS011;53653;52.188;8.602;2022-08-19T00:34:45;15.25;;;7.95;;
66739;SDS011;53653;52.188;8.602;2022-08-19T00:37:11;15.87;;;8.00;;
66739;SDS011;53653;52.188;8.602;2022-08-19T00:39:36;17.80;;;7.90;;
66739;SDS011;53653;52.188;8.602;2022-08-19T00:42:02;18.17;;;8.40;;
66739;SDS011;53653;52.188;8.602;2022-08-19T00:44:28;18.77;;;8.68;;
66739;SDS011;53653;52.188;8.602;2022-08-19T00:46:56;16.40;;;8.05;;
66739;SDS011;53653;52.188;8.602;2022-08-19T00:52:00;21.73;;;9.70;;
66739;SDS011;53653;52.188;8.602;2022-08-19T00:54:29;15.90;;;9.18;;
66739;SDS011;53653;52.188;8.602;2022-08-19T00:56:56;17.92;;;8.63;;
66739;SDS011;53653;52.188;8.602;2022-08-19T00:59:23;20.23;;;9.60;;
66739;SDS011;53653;52.188;8.602;2022-08-19T01:01:48;19.07;;;9.83;;
66739;SDS011;53653;52.188;8.602;2022-08-19T01:04:14;18.47;;;9.70;;
66739;SDS011;53653;52.188;8.602;2022-08-19T01:06:39;20.83;;;9.95;;
66739;SDS011;53653;52.188;8.602;2022-08-19T01:09:08;22.13;;;10.43;;
66739;SDS011;53653;52.188;8.602;2022-08-19T01:11:35;20.85;;;10.90;;
66739;SDS011;53653;52.188;8.602;2022-08-19T01:14:05;21.80;;;10.48;;
66739;SDS011;53653;52.188;8.602;2022-08-19T01:16:32;20.52;;;10.02;;
66739;SDS011;53653;52.188;8.602;2022-08-19T01:18:58;24.63;;;10.82;;
66739;SDS011;53653;52.188;8.602;2022-08-19T01:21:30;22.43;;;11.03;;
66739;SDS011;53653;52.188;8.602;2022-08-19T01:23:59;25.42;;;10.73;;
66739;SDS011;53653;52.188;8.602;2022-08-19T01:26:25;21.70;;;10.37;;
66739;SDS011;53653;52.188;8.602;2022-08-19T01:28:52;20.80;;;10.48;;
66739;SDS011;53653;52.188;8.602;2022-08-19T01:31:22;21.27;;;10.52;;
66739;SDS011;53653;52.188;8.602;2022-08-19T01:33:50;22.33;;;10.70;;
66739;SDS011;53653;52.188;8.602;2022-08-19T01:36:37;23.83;;;11.25;;
66739;SDS011;53653;52.188;8.602;2022-08-19T01:39:09;21.80;;;10.00;;
66739;SDS011;53653;52.188;8.602;2022-08-19T01:41:36;21.35;;;10.05;;
66739;SDS011;53653;52.188;8.602;2022-08-19T01:44:02;20.40;;;10.13;;
66739;SDS011;53653;52.188;8.602;2022-08-19T01:46:29;20.63;;;9.85;;
66739;SDS011;53653;52.188;8.602;2022-08-19T01:48:56;21.70;;;9.73;;
66739;SDS011;53653;52.188;8.602;2022-08-19T01:51:21;18.70;;;9.63;;
66739;SDS011;53653;52.188;8.602;2022-08-19T01:53:47;17.77;;;9.37;;
66739;SDS011;53653;52.188;8.602;2022-08-19T01:56:14;19.98;;;9.32;;
66739;SDS011;53653;52.188;8.602;2022-08-19T01:58:40;18.48;;;9.20;;
66739;SDS011;53653;52.188;8.602;2022-08-19T02:01:15;17.27;;;9.03;;
66739;SDS011;53653;52.188;8.602;2022-08-19T02:03:41;18.83;;;9.38;;
66739;SDS011;53653;52.188;8.602;2022-08-19T02:06:07;16.38;;;8.88;;
66739;SDS011;53653;52.188;8.602;2022-08-19T02:08:34;17.63;;;9.33;;
66739;SDS011;53653;52.188;8.602;2022-08-19T02:11:01;21.10;;;8.53;;
66739;SDS011;53653;52.188;8.602;2022-08-19T02:13:27;18.95;;;9.63;;
66739;SDS011;53653;52.188;8.602;2022-08-19T02:15:52;19.07;;;9.50;;
66739;SDS011;53653;52.188;8.602;2022-08-19T02:18:18;16.92;;;8.38;;
66739;SDS011;53653;52.188;8.602;2022-08-19T02:20:44;16.43;;;8.60;;
66739;SDS011;53653;52.188;8.602;2022-08-19T02:23:10;16.73;;;8.60;;
66739;SDS011;53653;52.188;8.602;2022-08-19T02:25:36;17.95;;;9.57;;
66739;SDS011;53653;52.188;8.602;2022-08-19T02:28:02;20.37;;;10.10;;
66739;SDS011;53653;52.188;8.602;2022-08-19T02:30:29;20.17;;;10.10;;
66739;SDS011;53653;52.188;8.602;2022-08-19T02:32:54;20.23;;;9.75;;
66739;SDS011;53653;52.188;8.602;2022-08-19T02:35:20;21.23;;;9.87;;
66739;SDS011;53653;52.188;8.602;2022-08-19T02:37:46;18.15;;;9.10;;
66739;SDS011;53653;52.188;8.602;2022-08-19T02:40:31;20.55;;;9.45;;
66739;SDS011;53653;52.188;8.602;2022-08-19T02:43:00;19.10;;;9.63;;
66739;SDS011;53653;52.188;8.602;2022-08-19T02:45:31;19.60;;;9.82;;
66739;SDS011;53653;52.188;8.602;2022-08-19T02:47:57;17.65;;;9.40;;
66739;SDS011;53653;52.188;8.602;2022-08-19T02:50:23;19.47;;;9.73;;
66739;SDS011;53653;52.188;8.602;2022-08-19T02:52:48;18.60;;;10.13;;
66739;SDS011;53653;52.188;8.602;2022-08-19T02:55:14;16.73;;;9.40;;
66739;SDS011;53653;52.188;8.602;2022-08-19T02:57:39;19.90;;;10.47;;
66739;SDS011;53653;52.188;8.602;2022-08-19T03:00:06;20.30;;;10.35;;
66739;SDS011;53653;52.188;8.602;2022-08-19T03:02:33;19.63;;;10.48;;
66739;SDS011;53653;52.188;8.602;2022-08-19T03:04:59;21.10;;;10.77;;
66739;SDS011;53653;52.188;8.602;2022-08-19T03:07:24;20.00;;;10.55;;
66739;SDS011;53653;52.188;8.602;2022-08-19T03:09:49;21.43;;;11.30;;
66739;SDS011;53653;52.188;8.602;2022-08-19T03:12:15;20.80;;;10.67;;
66739;SDS011;53653;52.188;8.602;2022-08-19T03:14:40;21.67;;;10.37;;
66739;SDS011;53653;52.188;8.602;2022-08-19T03:17:06;21.37;;;9.90;;
66739;SDS011;53653;52.188;8.602;2022-08-19T03:19:31;22.10;;;11.27;;
66739;SDS011;53653;52.188;8.602;2022-08-19T03:21:57;23.47;;;11.17;;
66739;SDS011;53653;52.188;8.602;2022-08-19T03:24:23;19.23;;;10.55;;
66739;SDS011;53653;52.188;8.602;2022-08-19T03:26:53;21.23;;;11.20;;
66739;SDS011;53653;52.188;8.602;2022-08-19T03:29:23;21.90;;;10.77;;
66739;SDS011;53653;52.188;8.602;2022-08-19T03:31:50;19.70;;;11.03;;
66739;SDS011;53653;52.188;8.602;2022-08-19T03:34:21;20.65;;;11.18;;
66739;SDS011;53653;52.188;8.602;2022-08-19T03:36:54;23.35;;;11.57;;
66739;SDS011;53653;52.188;8.602;2022-08-19T03:39:23;22.35;;;10.70;;
66739;SDS011;53653;52.188;8.602;2022-08-19T03:41:50;22.13;;;11.20;;
66739;SDS011;53653;52.188;8.602;2022-08-19T03:44:18;21.10;;;11.00;;
66739;SDS011;53653;52.188;8.602;2022-08-19T03:46:47;25.65;;;11.93;;
66739;SDS011;53653;52.188;8.602;2022-08-19T03:49:18;24.88;;;11.95;;
66739;SDS011;53653;52.188;8.602;2022-08-19T03:51:44;27.45;;;12.15;;
66739;SDS011;53653;52.188;8.602;2022-08-19T03:54:12;26.63;;;11.82;;
66739;SDS011;53653;52.188;8.602;2022-08-19T03:56:40;22.97;;;11.93;;
66739;SDS011;53653;52.188;8.602;2022-08-19T03:59:09;23.98;;;12.18;;
66739;SDS011;53653;52.188;8.602;2022-08-19T04:01:36;25.80;;;12.98;;
66739;SDS011;53653;52.188;8.602;2022-08-19T04:04:02;22.27;;;12.10;;
66739;SDS011;53653;52.188;8.602;2022-08-19T04:06:29;27.05;;;12.48;;
66739;SDS011;53653;52.188;8.602;2022-08-19T04:08:56;29.02;;;13.93;;
66739;SDS011;53653;52.188;8.602;2022-08-19T04:11:24;26.80;;;13.50;;
66739;SDS011;53653;52.188;8.602;2022-08-19T04:13:53;26.85;;;12.93;;
66739;SDS011;53653;52.188;8.602;2022-08-19T04:16:19;25.93;;;12.67;;
66739;SDS011;53653;52.188;8.602;2022-08-19T04:18:46;26.85;;;13.65;;
66739;SDS011;53653;52.188;8.602;2022-08-19T04:21:20;27.13;;;13.27;;
66739;SDS011;53653;52.188;8.602;2022-08-19T04:23:48;28.83;;;14.43;;
66739;SDS011;53653;52.188;8.602;2022-08-19T04:26:14;26.60;;;12.83;;
66739;SDS011;53653;52.188;8.602;2022-08-19T04:28:42;29.17;;;14.50;;
66739;SDS011;53653;52.188;8.602;2022-08-19T04:31:12;28.67;;;13.30;;
66739;SDS011;53653;52.188;8.602;2022-08-19T04:33:39;26.65;;;13.25;;
66739;SDS011;53653;52.188;8.602;2022-08-19T04:36:05;26.80;;;14.27;;
66739;SDS011;53653;52.188;8.602;2022-08-19T04:38:31;29.13;;;14.32;;
66739;SDS011;53653;52.188;8.602;2022-08-19T04:40:56;26.50;;;13.30;;
66739;SDS011;53653;52.188;8.602;2022-08-19T04:43:40;28.20;;;13.98;;
66739;SDS011;53653;52.188;8.602;2022-08-19T04:46:09;27.60;;;13.40;;
66739;SDS011;53653;52.188;8.602;2022-08-19T04:48:37;27.77;;;13.68;;
66739;SDS011;53653;52.188;8.602;2022-08-19T04:51:07;26.30;;;13.02;;
66739;SDS011;53653;52.188;8.602;2022-08-19T04:53:36;29.97;;;13.50;;
66739;SDS011;53653;52.188;8.602;2022-08-19T04:56:04;27.77;;;13.60;;
66739;SDS011;53653;52.188;8.602;2022-08-19T04:58:32;28.90;;;14.05;;
66739;SDS011;53653;52.188;8.602;2022-08-19T05:01:00;24.65;;;13.10;;
66739;SDS011;53653;52.188;8.602;2022-08-19T05:03:26;28.07;;;14.17;;
66739;SDS011;53653;52.188;8.602;2022-08-19T05:05:51;31.70;;;14.70;;
66739;SDS011;53653;52.188;8.602;2022-08-19T05:08:18;31.23;;;14.43;;
66739;SDS011;53653;52.188;8.602;2022-08-19T05:10:47;25.90;;;13.70;;
66739;SDS011;53653;52.188;8.602;2022-08-19T05:13:14;27.70;;;14.75;;
66739;SDS011;53653;52.188;8.602;2022-08-19T05:15:42;30.37;;;14.80;;
66739;SDS011;53653;52.188;8.602;2022-08-19T05:18:08;30.10;;;14.05;;
66739;SDS011;53653;52.188;8.602;2022-08-19T05:20:52;28.85;;;14.45;;
66739;SDS011;53653;52.188;8.602;2022-08-19T05:23:36;26.73;;;13.38;;
66739;SDS011;53653;52.188;8.602;2022-08-19T05:26:02;27.93;;;14.60;;
66739;SDS011;53653;52.188;8.602;2022-08-19T05:28:27;28.23;;;13.23;;
66739;SDS011;53653;52.188;8.602;2022-08-19T05:30:53;30.37;;;13.33;;
66739;SDS011;53653;52.188;8.602;2022-08-19T05:33:20;26.48;;;13.60;;
66739;SDS011;53653;52.188;8.602;2022-08-19T05:35:46;26.45;;;13.32;;
66739;SDS011;53653;52.188;8.602;2022-08-19T05:38:14;23.83;;;13.27;;
66739;SDS011;53653;52.188;8.602;2022-08-19T05:40:41;24.05;;;12.75;;
66739;SDS011;53653;52.188;8.602;2022-08-19T05:43:11;26.45;;;13.85;;
66739;SDS011;53653;52.188;8.602;2022-08-19T05:45:40;25.70;;;13.17;;
66739;SDS011;53653;52.188;8.602;2022-08-19T05:48:07;29.10;;;14.60;;
66739;SDS011;53653;52.188;8.602;2022-08-19T05:50:36;25.60;;;13.00;;
66739;SDS011;53653;52.188;8.602;2022-08-19T05:53:02;30.40;;;13.50;;
66739;SDS011;53653;52.188;8.602;2022-08-19T05:55:27;25.60;;;13.43;;
66739;SDS011;53653;52.188;8.602;2022-08-19T05:57:53;26.10;;;13.63;;
66739;SDS011;53653;52.188;8.602;2022-08-19T06:00:18;23.60;;;12.87;;
66739;SDS011;53653;52.188;8.602;2022-08-19T06:02:44;26.00;;;13.60;;
66739;SDS011;53653;52.188;8.602;2022-08-19T06:05:09;26.57;;;13.03;;
66739;SDS011;53653;52.188;8.602;2022-08-19T06:07:36;24.85;;;12.43;;
66739;SDS011;53653;52.188;8.602;2022-08-19T06:10:04;23.85;;;12.65;;
66739;SDS011;53653;52.188;8.602;2022-08-19T06:12:31;24.27;;;12.77;;
66739;SDS011;53653;52.188;8.602;2022-08-19T06:14:59;22.10;;;11.97;;
66739;SDS011;53653;52.188;8.602;2022-08-19T06:17:30;25.15;;;12.45;;
66739;SDS011;53653;52.188;8.602;2022-08-19T06:19:55;19.97;;;11.33;;
66739;SDS011;53653;52.188;8.602;2022-08-19T06:22:21;23.43;;;11.83;;
66739;SDS011;53653;52.188;8.602;2022-08-19T06:24:47;22.05;;;11.35;;
66739;SDS011;53653;52.188;8.602;2022-08-19T06:27:13;22.87;;;11.50;;
66739;SDS011;53653;52.188;8.602;2022-08-19T06:29:38;20.07;;;11.20;;
66739;SDS011;53653;52.188;8.602;2022-08-19T06:32:04;18.98;;;10.50;;
66739;SDS011;53653;52.188;8.602;2022-08-19T06:34:30;20.13;;;10.00;;
66739;SDS011;53653;52.188;8.602;2022-08-19T06:36:58;20.65;;;10.35;;
66739;SDS011;53653;52.188;8.602;2022-08-19T06:39:27;18.83;;;10.48;;
66739;SDS011;53653;52.188;8.602;2022-08-19T06:41:55;20.85;;;10.52;;
66739;SDS011;53653;52.188;8.602;2022-08-19T06:44:23;16.97;;;9.03;;
66739;SDS011;53653;52.188;8.602;2022-08-19T06:46:51;18.80;;;9.98;;
66739;SDS011;53653;52.188;8.602;2022-08-19T06:49:17;19.02;;;9.55;;
66739;SDS011;53653;52.188;8.602;2022-08-19T06:51:43;17.87;;;8.97;;
66739;SDS011;53653;52.188;8.602;2022-08-19T06:54:14;13.80;;;8.20;;
66739;SDS011;53653;52.188;8.602;2022-08-19T06:56:41;18.90;;;8.65;;
66739;SDS011;53653;52.188;8.602;2022-08-19T06:59:12;15.55;;;9.30;;
66739;SDS011;53653;52.188;8.602;2022-08-19T07:01:41;18.30;;;9.75;;
66739;SDS011;53653;52.188;8.602;2022-08-19T07:04:12;16.47;;;9.20;;
66739;SDS011;53653;52.188;8.602;2022-08-19T07:06:39;16.60;;;8.98;;
66739;SDS011;53653;52.188;8.602;2022-08-19T07:09:05;16.67;;;8.03;;
66739;SDS011;53653;52.188;8.602;2022-08-19T07:11:32;13.90;;;7.68;;
66739;SDS011;53653;52.188;8.602;2022-08-19T07:13:58;15.98;;;7.20;;
66739;SDS011;53653;52.188;8.602;2022-08-19T07:16:24;14.70;;;6.75;;
66739;SDS011;53653;52.188;8.602;2022-08-19T07:18:51;11.88;;;6.32;;
66739;SDS011;53653;52.188;8.602;2022-08-19T07:21:21;10.47;;;6.23;;
66739;SDS011;53653;52.188;8.602;2022-08-19T07:23:49;12.02;;;6.80;;
66739;SDS011;53653;52.188;8.602;2022-08-19T07:26:24;13.77;;;6.40;;
66739;SDS011;53653;52.188;8.602;2022-08-19T07:28:54;11.52;;;6.68;;
66739;SDS011;53653;52.188;8.602;2022-08-19T07:31:21;10.98;;;6.40;;
66739;SDS011;53653;52.188;8.602;2022-08-19T07:33:49;14.43;;;6.85;;
66739;SDS011;53653;52.188;8.602;2022-08-19T07:36:17;17.90;;;6.85;;
66739;SDS011;53653;52.188;8.602;2022-08-19T07:38:46;12.27;;;6.57;;
66739;SDS011;53653;52.188;8.602;2022-08-19T07:41:18;12.63;;;6.10;;
66739;SDS011;53653;52.188;8.602;2022-08-19T07:43:45;13.15;;;6.80;;
66739;SDS011;53653;52.188;8.602;2022-08-19T07:46:11;11.32;;;5.97;;
66739;SDS011;53653;52.188;8.602;2022-08-19T07:48:38;12.50;;;6.30;;
66739;SDS011;53653;52.188;8.602;2022-08-19T07:51:06;10.53;;;6.00;;
66739;SDS011;53653;52.188;8.602;2022-08-19T07:53:33;12.32;;;6.60;;
66739;SDS011;53653;52.188;8.602;2022-08-19T07:56:01;10.10;;;5.40;;
66739;SDS011;53653;52.188;8.602;2022-08-19T07:58:29;11.13;;;5.70;;
66739;SDS011;53653;52.188;8.602;2022-08-19T08:00:56;10.20;;;6.03;;
66739;SDS011;53653;52.188;8.602;2022-08-19T08:03:22;11.83;;;6.20;;
66739;SDS011;53653;52.188;8.602;2022-08-19T08:06:11;12.63;;;6.47;;
66739;SDS011;53653;52.188;8.602;2022-08-19T08:08:56;12.05;;;5.72;;
66739;SDS011;53653;52.188;8.602;2022-08-19T08:11:48;11.50;;;6.18;;
66739;SDS011;53653;52.188;8.602;2022-08-19T08:14:31;12.02;;;5.82;;
66739;SDS011;53653;52.188;8.602;2022-08-19T08:16:57;13.67;;;6.60;;
66739;SDS011;53653;52.188;8.602;2022-08-19T08:19:24;10.05;;;5.75;;
66739;SDS011;53653;52.188;8.602;2022-08-19T08:21:53;12.77;;;5.82;;
66739;SDS011;53653;52.188;8.602;2022-08-19T08:24:20;12.40;;;5.95;;
66739;SDS011;53653;52.188;8.602;2022-08-19T08:26:46;12.85;;;5.82;;
66739;SDS011;53653;52.188;8.602;2022-08-19T08:29:12;10.50;;;5.20;;
66739;SDS011;53653;52.188;8.602;2022-08-19T08:31:42;10.57;;;5.88;;
66739;SDS011;53653;52.188;8.602;2022-08-19T08:34:10;13.00;;;5.90;;
66739;SDS011;53653;52.188;8.602;2022-08-19T08:36:37;9.90;;;4.90;;
66739;SDS011;53653;52.188;8.602;2022-08-19T08:39:07;11.07;;;4.80;;
66739;SDS011;53653;52.188;8.602;2022-08-19T08:41:41;9.60;;;5.10;;
66739;SDS011;53653;52.188;8.602;2022-08-19T08:44:20;9.55;;;5.80;;
66739;SDS011;53653;52.188;8.602;2022-08-19T08:46:50;9.03;;;5.10;;
66739;SDS011;53653;52.188;8.602;2022-08-19T08:52:13;11.68;;;6.18;;
66739;SDS011;53653;52.188;8.602;2022-08-19T08:54:55;10.15;;;5.10;;
66739;SDS011;53653;52.188;8.602;2022-08-19T08:59:52;9.20;;;4.83;;
66739;SDS011;53653;52.188;8.602;2022-08-19T09:02:19;9.68;;;5.40;;
66739;SDS011;53653;52.188;8.602;2022-08-19T09:04:45;10.90;;;5.60;;
66739;SDS011;53653;52.188;8.602;2022-08-19T09:07:22;13.13;;;6.10;;
66739;SDS011;53653;52.188;8.602;2022-08-19T09:09:50;9.23;;;5.00;;
66739;SDS011;53653;52.188;8.602;2022-08-19T09:15:12;10.02;;;5.15;;
66739;SDS011;53653;52.188;8.602;2022-08-19T09:17:39;13.55;;;5.10;;
66739;SDS011;53653;52.188;8.602;2022-08-19T09:22:37;8.27;;;3.97;;
66739;SDS011;53653;52.188;8.602;2022-08-19T09:25:04;7.63;;;3.58;;
66739;SDS011;53653;52.188;8.602;2022-08-19T09:27:31;8.60;;;4.03;;
66739;SDS011;53653;52.188;8.602;2022-08-19T09:29:57;5.77;;;2.73;;
66739;SDS011;53653;52.188;8.602;2022-08-19T09:32:23;9.50;;;4.03;;
66739;SDS011;53653;52.188;8.602;2022-08-19T09:34:50;5.82;;;2.78;;
66739;SDS011;53653;52.188;8.602;2022-08-19T09:37:19;8.10;;;3.70;;
66739;SDS011;53653;52.188;8.602;2022-08-19T09:39:45;7.40;;;3.57;;
66739;SDS011;53653;52.188;8.602;2022-08-19T09:42:10;7.50;;;3.70;;
66739;SDS011;53653;52.188;8.602;2022-08-19T09:44:38;8.43;;;4.10;;
66739;SDS011;53653;52.188;8.602;2022-08-19T09:47:05;7.13;;;3.80;;
66739;SDS011;53653;52.188;8.602;2022-08-19T09:49:32;9.93;;;5.00;;
66739;SDS011;53653;52.188;8.602;2022-08-19T09:51:58;8.13;;;3.70;;
66739;SDS011;53653;52.188;8.602;2022-08-19T09:54:24;7.10;;;3.67;;
66739;SDS011;53653;52.188;8.602;2022-08-19T09:56:49;6.57;;;3.58;;
66739;SDS011;53653;52.188;8.602;2022-08-19T09:59:15;9.23;;;4.55;;
66739;SDS011;53653;52.188;8.602;2022-08-19T10:01:41;7.07;;;3.63;;
66739;SDS011;53653;52.188;8.602;2022-08-19T10:04:06;8.45;;;3.60;;
66739;SDS011;53653;52.188;8.602;2022-08-19T10:06:37;7.17;;;3.60;;
66739;SDS011;53653;52.188;8.602;2022-08-19T10:09:05;6.63;;;3.40;;
66739;SDS011;53653;52.188;8.602;2022-08-19T10:11:33;8.07;;;3.88;;
66739;SDS011;53653;52.188;8.602;2022-08-19T10:14:00;9.68;;;3.95;;
66739;SDS011;53653;52.188;8.602;2022-08-19T10:16:26;8.60;;;4.03;;
66739;SDS011;53653;52.188;8.602;2022-08-19T10:18:52;9.93;;;5.20;;
66739;SDS011;53653;52.188;8.602;2022-08-19T10:21:22;6.90;;;3.72;;
66739;SDS011;53653;52.188;8.602;2022-08-19T10:23:50;8.40;;;3.92;;
66739;SDS011;53653;52.188;8.602;2022-08-19T10:26:21;6.67;;;3.63;;
66739;SDS011;53653;52.188;8.602;2022-08-19T10:28:49;6.82;;;3.60;;
66739;SDS011;53653;52.188;8.602;2022-08-19T10:31:16;8.18;;;3.95;;
66739;SDS011;53653;52.188;8.602;2022-08-19T10:33:45;9.07;;;4.10;;
66739;SDS011;53653;52.188;8.602;2022-08-19T10:36:13;7.40;;;4.07;;
66739;SDS011;53653;52.188;8.602;2022-08-19T10:38:42;6.90;;;3.70;;
66739;SDS011;53653;52.188;8.602;2022-08-19T10:41:11;6.88;;;3.28;;
66739;SDS011;53653;52.188;8.602;2022-08-19T10:43:41;7.57;;;3.35;;
66739;SDS011;53653;52.188;8.602;2022-08-19T10:46:11;7.50;;;3.25;;
66739;SDS011;53653;52.188;8.602;2022-08-19T10:48:39;8.05;;;3.95;;
66739;SDS011;53653;52.188;8.602;2022-08-19T10:51:05;7.83;;;3.70;;
66739;SDS011;53653;52.188;8.602;2022-08-19T10:53:50;8.48;;;3.50;;
66739;SDS011;53653;52.188;8.602;2022-08-19T10:56:16;7.82;;;3.55;;
66739;SDS011;53653;52.188;8.602;2022-08-19T10:59:00;7.72;;;3.60;;
66739;SDS011;53653;52.188;8.602;2022-08-19T11:01:28;6.50;;;3.38;;
66739;SDS011;53653;52.188;8.602;2022-08-19T11:03:55;6.10;;;3.27;;
66739;SDS011;53653;52.188;8.602;2022-08-19T11:06:22;6.53;;;3.30;;
66739;SDS011;53653;52.188;8.602;2022-08-19T11:08:50;8.25;;;3.42;;
66739;SDS011;53653;52.188;8.602;2022-08-19T11:11:16;5.65;;;3.00;;
66739;SDS011;53653;52.188;8.602;2022-08-19T11:13:42;6.37;;;3.07;;
66739;SDS011;53653;52.188;8.602;2022-08-19T11:16:15;8.38;;;2.90;;
66739;SDS011;53653;52.188;8.602;2022-08-19T11:18:44;9.80;;;3.25;;
66739;SDS011;53653;52.188;8.602;2022-08-19T11:23:37;5.17;;;2.53;;
66739;SDS011;53653;52.188;8.602;2022-08-19T11:26:02;5.80;;;2.70;;
66739;SDS011;53653;52.188;8.602;2022-08-19T11:28:28;6.28;;;2.67;;
66739;SDS011;53653;52.188;8.602;2022-08-19T11:30:54;5.97;;;2.50;;
66739;SDS011;53653;52.188;8.602;2022-08-19T11:33:19;6.28;;;2.55;;
66739;SDS011;53653;52.188;8.602;2022-08-19T11:35:45;5.60;;;2.57;;
66739;SDS011;53653;52.188;8.602;2022-08-19T11:38:10;5.67;;;2.33;;
66739;SDS011;53653;52.188;8.602;2022-08-19T11:40:36;5.57;;;2.53;;
66739;SDS011;53653;52.188;8.602;2022-08-19T11:43:02;9.20;;;2.77;;
66739;SDS011;53653;52.188;8.602;2022-08-19T11:45:29;5.70;;;2.72;;
66739;SDS011;53653;52.188;8.602;2022-08-19T11:47:55;6.68;;;2.80;;
66739;SDS011;53653;52.188;8.602;2022-08-19T11:50:20;7.40;;;2.77;;
66739;SDS011;53653;52.188;8.602;2022-08-19T11:52:48;7.43;;;2.58;;
66739;SDS011;53653;52.188;8.602;2022-08-19T11:55:14;6.93;;;2.70;;
66739;SDS011;53653;52.188;8.602;2022-08-19T11:57:40;6.45;;;2.92;;
66739;SDS011;53653;52.188;8.602;2022-08-19T12:00:07;6.33;;;2.77;;
66739;SDS011;53653;52.188;8.602;2022-08-19T12:02:35;5.35;;;2.70;;
66739;SDS011;53653;52.188;8.602;2022-08-19T12:05:00;6.67;;;2.87;;
66739;SDS011;53653;52.188;8.602;2022-08-19T12:07:28;5.95;;;2.70;;
66739;SDS011;53653;52.188;8.602;2022-08-19T12:09:58;7.13;;;3.28;;
66739;SDS011;53653;52.188;8.602;2022-08-19T12:12:25;7.18;;;3.00;;
66739;SDS011;53653;52.188;8.602;2022-08-19T12:14:51;8.07;;;2.80;;
66739;SDS011;53653;52.188;8.602;2022-08-19T12:17:25;7.93;;;3.23;;
66739;SDS011;53653;52.188;8.602;2022-08-19T12:19:51;7.70;;;2.60;;
66739;SDS011;53653;52.188;8.602;2022-08-19T12:22:17;6.30;;;2.97;;
66739;SDS011;53653;52.188;8.602;2022-08-19T12:24:43;5.75;;;2.92;;
66739;SDS011;53653;52.188;8.602;2022-08-19T12:27:08;6.57;;;2.90;;
66739;SDS011;53653;52.188;8.602;2022-08-19T12:29:34;5.70;;;3.30;;
66739;SDS011;53653;52.188;8.602;2022-08-19T12:31:59;7.28;;;3.00;;
66739;SDS011;53653;52.188;8.602;2022-08-19T12:34:28;8.43;;;3.10;;
66739;SDS011;53653;52.188;8.602;2022-08-19T12:36:58;6.00;;;3.10;;
66739;SDS011;53653;52.188;8.602;2022-08-19T12:39:26;6.90;;;2.95;;
66739;SDS011;53653;52.188;8.602;2022-08-19T12:41:52;6.33;;;3.20;;
66739;SDS011;53653;52.188;8.602;2022-08-19T12:44:18;8.35;;;3.10;;
66739;SDS011;53653;52.188;8.602;2022-08-19T12:46:44;7.78;;;3.25;;
66739;SDS011;53653;52.188;8.602;2022-08-19T12:49:09;6.87;;;3.50;;
66739;SDS011;53653;52.188;8.602;2022-08-19T12:51:35;5.97;;;3.60;;
66739;SDS011;53653;52.188;8.602;2022-08-19T12:54:01;6.45;;;3.05;;
66739;SDS011;53653;52.188;8.602;2022-08-19T12:56:26;8.00;;;3.20;;
66739;SDS011;53653;52.188;8.602;2022-08-19T12:58:52;7.90;;;3.45;;
66739;SDS011;53653;52.188;8.602;2022-08-19T13:01:17;7.03;;;3.10;;
66739;SDS011;53653;52.188;8.602;2022-08-19T13:03:44;7.40;;;3.15;;
66739;SDS011;53653;52.188;8.602;2022-08-19T13:06:11;7.18;;;3.38;;
66739;SDS011;53653;52.188;8.602;2022-08-19T13:08:37;6.38;;;3.10;;
66739;SDS011;53653;52.188;8.602;2022-08-19T13:11:14;7.88;;;3.47;;
66739;SDS011;53653;52.188;8.602;2022-08-19T13:13:42;6.97;;;3.30;;
66739;SDS011;53653;52.188;8.602;2022-08-19T13:16:10;11.60;;;3.17;;
66739;SDS011;53653;52.188;8.602;2022-08-19T13:18:40;7.10;;;3.45;;
66739;SDS011;53653;52.188;8.602;2022-08-19T13:21:08;6.00;;;3.50;;
66739;SDS011;53653;52.188;8.602;2022-08-19T13:23:36;7.32;;;3.10;;
66739;SDS011;53653;52.188;8.602;2022-08-19T13:26:03;7.27;;;3.00;;
66739;SDS011;53653;52.188;8.602;2022-08-19T13:28:30;7.15;;;3.08;;
66739;SDS011;53653;52.188;8.602;2022-08-19T13:31:19;5.88;;;2.95;;
66739;SDS011;53653;52.188;8.602;2022-08-19T13:34:05;6.80;;;3.10;;
66739;SDS011;53653;52.188;8.602;2022-08-19T13:36:31;6.68;;;3.03;;
66739;SDS011;53653;52.188;8.602;2022-08-19T13:38:57;6.57;;;2.90;;
66739;SDS011;53653;52.188;8.602;2022-08-19T13:41:23;6.33;;;3.10;;
66739;SDS011;53653;52.188;8.602;2022-08-19T13:43:49;6.57;;;2.90;;
66739;SDS011;53653;52.188;8.602;2022-08-19T13:46:14;7.00;;;3.10;;
66739;SDS011;53653;52.188;8.602;2022-08-19T13:48:40;5.90;;;3.47;;
66739;SDS011;53653;52.188;8.602;2022-08-19T13:51:06;6.55;;;3.17;;
66739;SDS011;53653;52.188;8.602;2022-08-19T13:53:34;6.85;;;3.20;;
66739;SDS011;53653;52.188;8.602;2022-08-19T13:56:06;8.90;;;3.55;;
66739;SDS011;53653;52.188;8.602;2022-08-19T13:58:36;7.43;;;3.43;;
66739;SDS011;53653;52.188;8.602;2022-08-19T14:01:03;7.18;;;3.33;;
66739;SDS011;53653;52.188;8.602;2022-08-19T14:03:29;5.85;;;3.05;;
66739;SDS011;53653;52.188;8.602;2022-08-19T14:05:55;8.05;;;3.25;;
66739;SDS011;53653;52.188;8.602;2022-08-19T14:08:21;6.03;;;3.30;;
66739;SDS011;53653;52.188;8.602;2022-08-19T14:10:47;6.50;;;3.50;;
66739;SDS011;53653;52.188;8.602;2022-08-19T14:13:17;7.32;;;3.22;;
66739;SDS011;53653;52.188;8.602;2022-08-19T14:15:45;5.70;;;2.90;;
66739;SDS011;53653;52.188;8.602;2022-08-19T14:18:12;6.25;;;3.33;;
66739;SDS011;53653;52.188;8.602;2022-08-19T14:20:38;8.60;;;3.47;;
66739;SDS011;53653;52.188;8.602;2022-08-19T14:23:04;7.97;;;3.10;;
66739;SDS011;53653;52.188;8.602;2022-08-19T14:25:32;7.68;;;3.40;;
66739;SDS011;53653;52.188;8.602;2022-08-19T14:27:59;7.70;;;3.60;;
66739;SDS011;53653;52.188;8.602;2022-08-19T14:30:27;8.23;;;3.90;;
66739;SDS011;53653;52.188;8.602;2022-08-19T14:32:55;7.07;;;3.42;;
66739;SDS011;53653;52.188;8.602;2022-08-19T14:35:21;7.35;;;3.38;;
66739;SDS011;53653;52.188;8.602;2022-08-19T14:37:47;8.23;;;3.70;;
66739;SDS011;53653;52.188;8.602;2022-08-19T14:40:16;8.77;;;3.57;;
66739;SDS011;53653;52.188;8.602;2022-08-19T14:42:45;5.93;;;3.10;;
66739;SDS011;53653;52.188;8.602;2022-08-19T14:45:13;6.93;;;2.97;;
66739;SDS011;53653;52.188;8.602;2022-08-19T14:47:40;6.25;;;3.20;;
66739;SDS011;53653;52.188;8.602;2022-08-19T14:50:10;8.73;;;3.33;;
66739;SDS011;53653;52.188;8.602;2022-08-19T14:52:36;9.52;;;3.63;;
66739;SDS011;53653;52.188;8.602;2022-08-19T14:55:03;7.03;;;3.80;;